Terminal Aerodrome Forecast
Issued by NWS Cleveland, OH

Home | Current Version | Previous Version | Graphics & Text | Print | Product List | Glossary On
Versions: 1 2 3 4 5 6 7 8 9 10 11 12 13 14 15 16 17 18 19 20 21 22 23 24
288
FTUS41 KCLE 221454 AAB
TAFCLE
TAF AMD
KCLE 221454Z 2215/2318 01007KT P6SM SCT035 BKN100
     FM221700 36012KT P6SM SCT040
     FM230000 34004KT P6SM FEW250
     FM231500 36008KT P6SM SCT035=

USA.gov is the U.S. government's official web portal to all federal, state and local government web resources and services.